Time;durP1;ratioP1;P1;durP2;ratioP2;P2;SDS_P1;SDS_P2;PMS_P1;PMS_P2;Temp;Humidity;BMP_temperature;BMP_pressure;BME280_temperature;BME280_humidity;BME280_pressure;Samples;Min_cycle;Max_cycle;Signal;HPM_P1;HPM_P2
2023/06/28 00:00:11;;;;;;;1.95;1.75;;;23.90;44.90;;;;;;5033837;22;20224;-84
2023/06/28 00:02:45;;;;;;;1.85;1.75;;;23.80;44.80;;;;;;5015151;28;20647;-83
2023/06/28 00:05:12;;;;;;;2.95;1.75;;;23.80;44.90;;;;;;5013369;28;20196;-83
2023/06/28 00:07:39;;;;;;;2.05;1.85;;;23.80;44.90;;;;;;5014580;28;20193;-83
2023/06/28 00:10:07;;;;;;;2.10;1.77;;;23.80;44.80;;;;;;5013678;28;20742;-83
2023/06/28 00:12:35;;;;;;;2.08;1.80;;;23.80;44.90;;;;;;5013189;28;20254;-83
2023/06/28 00:15:03;;;;;;;2.33;1.70;;;23.80;45.00;;;;;;5013187;28;20681;-83
2023/06/28 00:17:30;;;;;;;2.05;1.85;;;23.80;45.50;;;;;;5013886;28;20201;-83
2023/06/28 00:20:00;;;;;;;3.13;2.00;;;23.80;44.90;;;;;;4997170;28;20700;-83
2023/06/28 00:22:29;;;;;;;3.00;2.00;;;23.80;45.00;;;;;;5013551;28;20208;-83
2023/06/28 00:24:56;;;;;;;2.50;1.92;;;23.80;44.90;;;;;;4996953;28;20200;-83
2023/06/28 00:27:23;;;;;;;1.65;1.55;;;23.80;44.90;;;;;;5013130;28;20201;-83
2023/06/28 00:29:50;;;;;;;3.55;2.25;;;23.80;45.00;;;;;;5013086;28;20603;-83
2023/06/28 00:32:17;;;;;;;2.45;1.88;;;23.80;45.00;;;;;;5012810;28;20193;-83
2023/06/28 00:34:44;;;;;;;1.98;1.77;;;23.80;45.00;;;;;;5013072;28;20281;-83
2023/06/28 00:37:14;;;;;;;2.58;1.83;;;23.80;45.00;;;;;;5013298;28;20239;-83
2023/06/28 00:39:41;;;;;;;1.90;1.50;;;23.70;45.50;;;;;;5013088;28;20216;-83
2023/06/28 00:42:09;;;;;;;1.70;1.55;;;23.80;45.00;;;;;;4997353;28;20323;-84
2023/06/28 00:44:36;;;;;;;1.80;1.70;;;23.80;45.10;;;;;;5014278;28;20197;-83
2023/06/28 00:47:03;;;;;;;1.92;1.70;;;23.80;44.90;;;;;;5013853;28;20652;-83
2023/06/28 00:49:32;;;;;;;1.65;1.55;;;23.70;44.70;;;;;;5013185;28;20221;-84
2023/06/28 00:51:59;;;;;;;2.20;1.92;;;23.80;44.80;;;;;;5013552;28;20606;-83
2023/06/28 00:54:27;;;;;;;1.80;1.60;;;23.70;44.80;;;;;;5016324;28;20542;-83
2023/06/28 00:56:55;;;;;;;2.03;1.58;;;23.70;44.90;;;;;;5016695;28;20656;-83
2023/06/28 00:59:22;;;;;;;2.35;2.00;;;23.80;45.00;;;;;;5016809;28;20224;-83
2023/06/28 01:01:50;;;;;;;1.90;1.65;;;23.70;44.90;;;;;;5016572;28;20208;-83
2023/06/28 01:04:17;;;;;;;3.17;1.80;;;23.70;44.60;;;;;;5000056;28;20283;-83
2023/06/28 01:06:54;;;;;;;2.03;1.80;;;23.70;44.50;;;;;;5000126;28;20291;-83
2023/06/28 01:09:21;;;;;;;2.33;1.70;;;23.70;44.60;;;;;;5016335;28;20244;-83
2023/06/28 01:11:50;;;;;;;2.55;1.90;;;23.70;44.60;;;;;;5015980;28;20201;-83
2023/06/28 01:14:17;;;;;;;2.47;1.95;;;23.70;44.40;;;;;;5016426;28;20201;-83
2023/06/28 01:16:45;;;;;;;3.30;1.98;;;23.70;44.60;;;;;;5016524;28;20287;-83
2023/06/28 01:19:13;;;;;;;2.70;1.90;;;23.70;44.40;;;;;;5016354;28;20213;-83
2023/06/28 01:21:41;;;;;;;2.17;1.70;;;23.70;44.40;;;;;;5016009;28;20207;-83
2023/06/28 01:24:10;;;;;;;5.03;1.88;;;23.70;44.30;;;;;;5015926;28;20212;-83
2023/06/28 01:26:38;;;;;;;2.38;1.88;;;23.70;44.40;;;;;;5015590;28;20196;-83
2023/06/28 01:29:05;;;;;;;2.47;2.10;;;23.70;44.40;;;;;;5015353;28;20316;-83
2023/06/28 01:31:33;;;;;;;2.00;1.80;;;23.70;44.50;;;;;;5016237;28;20231;-83
2023/06/28 01:34:01;;;;;;;1.90;1.80;;;23.70;44.60;;;;;;5015290;28;20197;-83
2023/06/28 01:36:28;;;;;;;1.90;1.60;;;23.70;44.80;;;;;;5015803;28;20201;-83
2023/06/28 01:38:55;;;;;;;2.22;1.90;;;23.70;44.40;;;;;;5015888;28;20217;-83
2023/06/28 01:41:26;;;;;;;3.65;1.80;;;23.60;44.50;;;;;;5018079;28;20213;-83
2023/06/28 01:43:53;;;;;;;2.83;2.00;;;23.60;44.50;;;;;;5018331;28;20271;-84
2023/06/28 01:46:20;;;;;;;2.78;2.05;;;23.60;44.60;;;;;;5015728;28;20651;-84
2023/06/28 01:48:47;;;;;;;2.20;1.70;;;23.70;44.80;;;;;;5014852;28;20224;-83
2023/06/28 01:51:14;;;;;;;2.40;1.80;;;23.70;44.90;;;;;;5015317;28;20230;-83
2023/06/28 01:53:42;;;;;;;1.83;1.58;;;23.70;45.00;;;;;;5015571;28;20219;-83
2023/06/28 01:56:10;;;;;;;3.17;2.10;;;23.60;45.00;;;;;;5014980;28;20235;-83
2023/06/28 01:58:38;;;;;;;2.20;1.85;;;23.70;45.10;;;;;;4998929;28;20327;-83
2023/06/28 02:01:07;;;;;;;2.47;2.03;;;23.60;45.20;;;;;;5015073;28;20193;-83
2023/06/28 02:03:34;;;;;;;1.73;1.63;;;23.60;45.40;;;;;;5015005;28;20201;-83
2023/06/28 02:06:01;;;;;;;2.05;1.83;;;23.60;45.40;;;;;;5015559;28;20197;-83
2023/06/28 02:08:28;;;;;;;2.30;1.75;;;23.60;45.60;;;;;;5015175;28;20220;-83
2023/06/28 02:10:55;;;;;;;3.10;1.80;;;23.70;45.70;;;;;;5015200;28;20549;-83
2023/06/28 02:13:22;;;;;;;2.38;1.77;;;23.60;45.60;;;;;;5015342;28;20207;-83
2023/06/28 02:15:51;;;;;;;2.88;2.00;;;23.60;45.70;;;;;;5015079;28;20200;-83
2023/06/28 02:18:24;;;;;;;2.72;1.92;;;23.60;45.70;;;;;;5014922;28;20219;-83
2023/06/28 02:20:51;;;;;;;2.20;1.80;;;23.60;45.80;;;;;;5015286;28;20189;-84
2023/06/28 02:23:20;;;;;;;2.15;1.90;;;23.60;45.90;;;;;;5015592;28;20192;-83
2023/06/28 02:25:47;;;;;;;3.00;1.80;;;23.60;46.00;;;;;;5016459;28;20205;-83
2023/06/28 02:28:14;;;;;;;2.22;2.03;;;23.60;45.70;;;;;;5015795;28;20197;-83
2023/06/28 02:30:41;;;;;;;3.78;2.20;;;23.50;45.70;;;;;;5015879;28;20316;-83
2023/06/28 02:33:11;;;;;;;2.25;1.90;;;23.50;45.80;;;;;;5015338;28;20205;-83
2023/06/28 02:35:38;;;;;;;3.55;2.00;;;23.50;45.70;;;;;;5015116;28;20204;-83
2023/06/28 02:38:05;;;;;;;2.92;1.95;;;23.50;46.10;;;;;;5015075;28;20212;-83
2023/06/28 02:40:34;;;;;;;2.90;1.85;;;23.50;46.40;;;;;;5016681;28;20188;-83
2023/06/28 02:43:01;;;;;;;2.20;2.00;;;23.50;46.50;;;;;;5016312;28;20652;-84
2023/06/28 02:45:28;;;;;;;1.80;1.60;;;23.50;46.60;;;;;;4998878;28;20197;-84
2023/06/28 02:47:56;;;;;;;2.17;1.98;;;23.50;46.70;;;;;;5015808;28;20201;-84
2023/06/28 02:50:25;;;;;;;3.47;1.90;;;23.50;46.80;;;;;;5019488;28;20207;-83
2023/06/28 02:53:01;;;;;;;2.97;1.90;;;23.50;46.80;;;;;;5027929;28;20199;-84
2023/06/28 02:55:29;;;;;;;2.22;2.00;;;23.50;46.80;;;;;;5023019;28;20209;-84
2023/06/28 02:57:59;;;;;;;2.33;1.83;;;23.40;46.80;;;;;;5021990;28;20204;-84
2023/06/28 03:00:26;;;;;;;2.17;1.85;;;23.40;46.80;;;;;;5020497;28;20660;-84
2023/06/28 03:02:53;;;;;;;2.38;1.73;;;23.40;46.80;;;;;;5020624;28;20201;-84
2023/06/28 03:05:23;;;;;;;4.35;2.05;;;23.40;46.70;;;;;;5020397;28;20236;-84
2023/06/28 03:07:50;;;;;;;2.45;1.95;;;23.40;46.80;;;;;;5020038;28;20205;-83
2023/06/28 03:10:17;;;;;;;2.22;1.83;;;23.40;47.00;;;;;;5020466;28;20227;-84
2023/06/28 03:12:44;;;;;;;2.00;1.73;;;23.40;47.00;;;;;;5020145;28;20192;-83
2023/06/28 03:15:12;;;;;;;2.78;1.98;;;23.40;47.20;;;;;;5018961;28;20220;-84
2023/06/28 03:17:39;;;;;;;2.80;2.00;;;23.40;47.20;;;;;;5003604;28;20255;-84
2023/06/28 03:20:10;;;;;;;3.05;1.88;;;23.40;47.20;;;;;;5018643;28;20216;-83
2023/06/28 03:22:39;;;;;;;2.10;2.00;;;23.40;47.20;;;;;;5019546;28;20232;-83
2023/06/28 03:25:07;;;;;;;3.13;2.20;;;23.50;47.20;;;;;;5018459;28;20579;-83
2023/06/28 03:27:34;;;;;;;2.72;2.00;;;23.50;47.10;;;;;;5018550;28;20212;-83
2023/06/28 03:30:03;;;;;;;2.63;2.13;;;23.50;47.00;;;;;;5018967;28;20241;-83
2023/06/28 03:32:31;;;;;;;2.88;1.83;;;23.50;46.80;;;;;;5018342;28;20283;-83
2023/06/28 03:34:59;;;;;;;2.28;1.88;;;23.50;46.70;;;;;;5002109;28;20208;-83
2023/06/28 03:37:26;;;;;;;2.38;2.08;;;23.60;46.70;;;;;;5018173;28;20295;-83
2023/06/28 03:39:55;;;;;;;3.05;1.88;;;23.60;46.40;;;;;;5014014;28;20286;-83
2023/06/28 03:42:22;;;;;;;2.83;1.92;;;23.60;46.40;;;;;;5014738;28;20200;-83
2023/06/28 03:44:49;;;;;;;3.40;1.92;;;23.60;46.40;;;;;;5014380;28;20247;-83
2023/06/28 03:47:17;;;;;;;3.10;1.90;;;23.60;46.40;;;;;;5013718;28;20189;-83
2023/06/28 03:49:45;;;;;;;2.58;2.00;;;23.70;46.30;;;;;;5013658;28;20696;-83
2023/06/28 03:52:12;;;;;;;2.72;1.95;;;23.70;46.40;;;;;;5013919;28;20659;-83
2023/06/28 03:54:39;;;;;;;2.30;2.10;;;23.70;46.40;;;;;;5014065;28;20287;-84
2023/06/28 03:57:09;;;;;;;2.22;1.80;;;23.70;45.80;;;;;;5013884;28;20204;-83
2023/06/28 03:59:36;;;;;;;2.05;1.85;;;23.70;46.10;;;;;;5018145;28;20274;-84
2023/06/28 04:02:03;;;;;;;3.78;1.95;;;23.60;46.00;;;;;;5018571;28;20274;-83
2023/06/28 04:04:30;;;;;;;2.08;1.83;;;23.70;46.00;;;;;;5017845;28;20193;-83
2023/06/28 04:07:00;;;;;;;3.05;1.95;;;23.70;46.00;;;;;;5017933;28;20196;-84
2023/06/28 04:09:28;;;;;;;2.97;2.13;;;23.60;45.90;;;;;;5018113;28;20703;-83
2023/06/28 04:11:56;;;;;;;2.20;2.00;;;23.60;45.90;;;;;;5017766;28;20561;-84
2023/06/28 04:14:25;;;;;;;2.03;1.80;;;23.70;45.80;;;;;;5017479;28;20200;-84
2023/06/28 04:16:52;;;;;;;2.22;2.00;;;23.80;45.90;;;;;;5014898;28;20208;-83
2023/06/28 04:19:20;;;;;;;3.83;1.98;;;23.70;45.70;;;;;;5013968;28;20651;-83
2023/06/28 04:21:47;;;;;;;2.10;1.90;;;23.70;45.70;;;;;;5014490;28;20204;-83
2023/06/28 04:24:15;;;;;;;3.63;2.05;;;23.70;45.70;;;;;;5014835;28;20547;-83
2023/06/28 04:26:42;;;;;;;3.47;1.85;;;23.70;45.70;;;;;;5013367;28;20613;-83
2023/06/28 04:29:09;;;;;;;2.53;1.98;;;23.70;45.70;;;;;;5017648;28;20295;-83
2023/06/28 04:31:38;;;;;;;2.38;1.90;;;23.70;45.70;;;;;;5018803;28;20647;-83
2023/06/28 04:34:05;;;;;;;2.40;1.88;;;23.70;45.70;;;;;;5018377;28;20660;-84
2023/06/28 04:36:32;;;;;;;2.78;2.20;;;23.80;45.80;;;;;;5017537;28;20251;-84
2023/06/28 04:38:59;;;;;;;3.10;1.80;;;23.80;45.80;;;;;;5017227;28;20223;-83
2023/06/28 04:41:26;;;;;;;3.28;2.00;;;23.70;45.70;;;;;;5017039;28;20220;-83
2023/06/28 04:43:55;;;;;;;2.83;1.80;;;23.80;45.80;;;;;;5016778;28;20200;-83
2023/06/28 04:46:22;;;;;;;2.20;2.00;;;23.80;45.80;;;;;;5017480;28;20222;-83
2023/06/28 04:48:51;;;;;;;4.10;2.10;;;23.70;45.90;;;;;;5016711;28;20230;-83
2023/06/28 04:51:18;;;;;;;2.00;1.80;;;23.80;46.00;;;;;;5016690;28;20222;-83
2023/06/28 04:53:45;;;;;;;2.58;2.00;;;23.80;46.00;;;;;;5017771;28;20197;-83
2023/06/28 04:56:12;;;;;;;1.80;1.70;;;23.80;46.00;;;;;;5016673;28;20376;-83
2023/06/28 04:58:39;;;;;;;2.25;1.90;;;23.80;46.10;;;;;;5017281;28;20220;-83
2023/06/28 05:01:07;;;;;;;2.63;1.80;;;23.80;46.20;;;;;;5017046;28;20199;-83
2023/06/28 05:03:34;;;;;;;2.08;1.88;;;23.80;46.20;;;;;;5017862;28;20247;-83
2023/06/28 05:06:04;;;;;;;2.33;1.70;;;23.80;46.20;;;;;;5019572;28;20196;-83
2023/06/28 05:08:32;;;;;;;2.20;2.00;;;23.70;46.20;;;;;;5017548;28;20228;-83
2023/06/28 05:10:59;;;;;;;2.17;1.90;;;23.70;46.40;;;;;;5018690;28;20224;-83
2023/06/28 05:13:26;;;;;;;3.15;1.88;;;23.80;46.50;;;;;;5017621;28;20288;-83
2023/06/28 05:15:53;;;;;;;2.88;1.90;;;23.80;46.50;;;;;;5018145;28;20268;-83
2023/06/28 05:18:20;;;;;;;2.40;1.77;;;23.80;46.60;;;;;;5018307;28;20255;-84
2023/06/28 05:20:47;;;;;;;3.13;1.85;;;23.70;46.50;;;;;;5018924;28;20196;-84
2023/06/28 05:23:16;;;;;;;2.75;2.08;;;23.80;47.20;;;;;;5019041;28;20299;-83
2023/06/28 05:25:45;;;;;;;2.95;1.70;;;23.70;46.60;;;;;;5019041;28;20656;-84
2023/06/28 05:28:13;;;;;;;3.03;1.95;;;23.70;46.60;;;;;;5019972;28;20205;-84
2023/06/28 05:30:41;;;;;;;2.10;1.90;;;23.70;46.80;;;;;;5017599;28;20761;-84
2023/06/28 05:33:08;;;;;;;2.67;2.00;;;23.70;46.70;;;;;;5015644;28;20212;-84
2023/06/28 05:35:36;;;;;;;2.60;1.80;;;23.70;46.70;;;;;;5015737;28;20299;-83
2023/06/28 05:38:03;;;;;;;3.38;2.05;;;23.70;46.80;;;;;;5015189;28;20192;-84
2023/06/28 05:40:32;;;;;;;2.35;2.15;;;23.70;46.90;;;;;;5016957;28;20205;-83
2023/06/28 05:42:59;;;;;;;2.92;1.90;;;23.70;46.90;;;;;;5015854;28;20199;-84
2023/06/28 05:45:27;;;;;;;3.60;1.92;;;23.70;47.00;;;;;;5015911;28;20196;-83
2023/06/28 05:47:54;;;;;;;3.55;1.90;;;23.70;47.10;;;;;;5019060;28;20201;-83
2023/06/28 05:50:21;;;;;;;2.88;1.90;;;23.60;47.10;;;;;;5015586;28;20227;-83
2023/06/28 05:52:48;;;;;;;2.72;2.05;;;23.60;47.10;;;;;;5016018;28;20671;-83
2023/06/28 05:55:15;;;;;;;2.50;1.70;;;23.70;47.10;;;;;;5015458;28;20663;-83
2023/06/28 05:57:44;;;;;;;2.58;2.00;;;23.60;47.00;;;;;;5015992;28;20208;-83
2023/06/28 06:00:13;;;;;;;3.22;2.08;;;23.70;47.10;;;;;;5015307;28;20710;-83
2023/06/28 06:02:40;;;;;;;2.42;1.90;;;23.70;47.10;;;;;;5015710;28;20200;-83
2023/06/28 06:05:08;;;;;;;2.65;2.15;;;23.80;47.00;;;;;;5016297;28;20196;-83
2023/06/28 06:07:39;;;;;;;2.53;2.03;;;23.80;46.80;;;;;;5015689;28;20215;-83
2023/06/28 06:10:08;;;;;;;4.30;2.20;;;23.90;46.80;;;;;;5015888;28;20244;-83
2023/06/28 06:12:35;;;;;;;2.30;1.90;;;23.90;46.70;;;;;;5015831;28;20294;-83
2023/06/28 06:15:05;;;;;;;3.17;1.75;;;24.00;46.70;;;;;;5015225;28;20197;-83
2023/06/28 06:17:33;;;;;;;3.30;2.00;;;24.00;46.60;;;;;;5016764;28;20289;-83
2023/06/28 06:20:00;;;;;;;3.58;1.95;;;24.00;46.40;;;;;;5015367;28;20224;-83
2023/06/28 06:22:27;;;;;;;1.98;1.77;;;24.00;46.30;;;;;;5015192;28;20672;-83
2023/06/28 06:24:54;;;;;;;2.03;1.65;;;24.10;46.20;;;;;;5015483;28;20201;-83
2023/06/28 06:27:21;;;;;;;2.58;1.83;;;24.10;46.10;;;;;;5016723;28;20570;-83
2023/06/28 06:29:48;;;;;;;2.53;2.20;;;24.10;45.90;;;;;;5026921;28;20769;-83
2023/06/28 06:32:17;;;;;;;2.35;1.80;;;24.20;46.00;;;;;;5030184;28;20234;-84
2023/06/28 06:34:45;;;;;;;3.67;1.83;;;24.20;45.90;;;;;;5027113;28;20208;-83
2023/06/28 06:37:13;;;;;;;3.58;2.20;;;24.20;45.80;;;;;;5024992;28;20267;-83
2023/06/28 06:39:40;;;;;;;2.85;1.95;;;24.30;45.80;;;;;;5026009;28;20225;-83
2023/06/28 06:42:08;;;;;;;3.47;2.17;;;24.30;45.50;;;;;;5025310;28;20199;-83
2023/06/28 06:44:35;;;;;;;2.47;1.80;;;24.30;45.50;;;;;;5025082;28;20216;-85
2023/06/28 06:47:03;;;;;;;2.25;1.90;;;24.30;45.30;;;;;;5021943;28;20221;-85
2023/06/28 06:49:32;;;;;;;2.22;1.80;;;24.30;45.30;;;;;;5018505;28;20316;-84
2023/06/28 06:51:59;;;;;;;2.22;1.88;;;24.30;45.10;;;;;;5014577;28;20572;-84
2023/06/28 06:54:29;;;;;;;2.58;1.75;;;24.30;45.10;;;;;;5014519;28;20220;-84
2023/06/28 06:56:56;;;;;;;2.33;1.90;;;24.40;45.20;;;;;;5014493;28;20196;-85
2023/06/28 06:59:24;;;;;;;2.53;1.77;;;24.40;45.10;;;;;;5013880;28;20224;-85
2023/06/28 07:01:51;;;;;;;1.88;1.73;;;24.50;45.10;;;;;;5014187;28;20295;-85
2023/06/28 07:04:19;;;;;;;2.50;2.10;;;24.50;44.80;;;;;;5014452;28;20216;-85
2023/06/28 07:06:48;;;;;;;2.20;1.80;;;24.60;44.90;;;;;;5014121;28;20200;-83
2023/06/28 07:09:15;;;;;;;2.97;2.20;;;24.60;44.90;;;;;;4998007;28;20224;-84
2023/06/28 07:11:42;;;;;;;3.50;2.20;;;24.60;44.70;;;;;;5014728;28;20212;-83
2023/06/28 07:14:09;;;;;;;5.82;2.30;;;24.60;43.60;;;;;;5015398;28;20201;-83
2023/06/28 07:16:36;;;;;;;4.07;2.28;;;24.50;42.50;;;;;;5014426;28;20203;-83
2023/06/28 07:19:05;;;;;;;4.43;2.17;;;24.40;43.10;;;;;;4998409;28;20212;-83
2023/06/28 07:21:33;;;;;;;4.55;2.25;;;24.30;42.70;;;;;;5015322;28;20197;-83
2023/06/28 07:24:01;;;;;;;3.22;2.25;;;24.20;42.30;;;;;;5013942;28;20201;-82
2023/06/28 07:26:28;;;;;;;6.22;2.25;;;24.20;43.30;;;;;;5013698;28;20575;-83
2023/06/28 07:28:55;;;;;;;3.80;2.10;;;24.10;42.70;;;;;;5013785;28;20274;-83
2023/06/28 07:31:22;;;;;;;4.93;2.08;;;24.00;42.20;;;;;;5013633;28;20212;-83
2023/06/28 07:33:49;;;;;;;4.22;2.13;;;24.00;42.50;;;;;;5014778;28;20652;-83
2023/06/28 07:36:16;;;;;;;2.75;2.00;;;24.00;43.20;;;;;;5014093;28;20192;-83
2023/06/28 07:38:43;;;;;;;2.83;1.88;;;23.90;43.70;;;;;;5013739;28;20223;-83
2023/06/28 07:41:12;;;;;;;2.22;2.00;;;23.80;42.60;;;;;;5013333;28;20201;-83
2023/06/28 07:43:40;;;;;;;5.43;2.17;;;23.80;41.80;;;;;;5013665;28;20200;-83
2023/06/28 07:46:07;;;;;;;3.20;1.90;;;23.80;41.60;;;;;;4997330;28;20651;-83
2023/06/28 07:48:34;;;;;;;4.50;2.00;;;23.80;41.30;;;;;;4997889;28;20561;-82
2023/06/28 07:51:02;;;;;;;3.75;2.17;;;23.70;42.00;;;;;;5013017;28;20243;-83
2023/06/28 07:53:29;;;;;;;6.35;2.03;;;23.70;42.80;;;;;;5012902;28;20220;-83
2023/06/28 07:55:56;;;;;;;4.07;2.30;;;23.70;44.50;;;;;;5013631;28;20204;-83
2023/06/28 07:58:25;;;;;;;3.30;1.92;;;23.70;43.00;;;;;;5013264;28;20666;-82
2023/06/28 08:00:52;;;;;;;2.88;2.05;;;23.60;42.60;;;;;;5013364;28;20216;-82
2023/06/28 08:03:19;;;;;;;3.97;2.10;;;23.60;42.60;;;;;;5017361;28;20255;-82
2023/06/28 08:05:46;;;;;;;2.88;1.80;;;23.60;42.90;;;;;;5017426;28;20259;-82
2023/06/28 08:08:14;;;;;;;3.40;1.88;;;23.60;42.50;;;;;;5017147;28;20204;-82
2023/06/28 08:10:41;;;;;;;2.03;1.63;;;23.60;42.70;;;;;;5017062;28;20212;-82
2023/06/28 08:13:07;;;;;;;2.42;1.90;;;23.70;42.70;;;;;;5017118;28;20215;-82
2023/06/28 08:15:38;;;;;;;2.17;1.60;;;23.70;42.60;;;;;;5017026;28;20208;-82
2023/06/28 08:18:08;;;;;;;4.03;2.00;;;23.70;42.70;;;;;;5016941;28;20250;-83
2023/06/28 08:20:35;;;;;;;4.22;1.95;;;23.60;41.90;;;;;;5018062;28;20223;-84
2023/06/28 08:23:03;;;;;;;5.22;2.17;;;23.70;41.60;;;;;;5017205;28;20239;-83
2023/06/28 08:25:30;;;;;;;3.78;2.08;;;23.70;41.40;;;;;;5016906;28;20665;-83
2023/06/28 08:27:57;;;;;;;3.80;1.73;;;23.70;41.70;;;;;;5016874;28;20197;-83
2023/06/28 08:30:24;;;;;;;8.18;2.17;;;23.80;42.10;;;;;;5016860;28;20702;-82
2023/06/28 08:32:53;;;;;;;4.45;2.08;;;23.90;42.50;;;;;;5016995;28;20225;-81
2023/06/28 08:35:20;;;;;;;4.65;2.22;;;23.90;41.50;;;;;;5017444;28;20201;-82
2023/06/28 08:37:47;;;;;;;3.03;1.88;;;23.90;41.80;;;;;;5017702;28;20196;-81
2023/06/28 08:40:14;;;;;;;4.13;1.88;;;24.00;41.80;;;;;;5017064;28;20224;-81
2023/06/28 08:42:42;;;;;;;3.05;1.90;;;24.00;41.60;;;;;;5001800;28;20193;-81
2023/06/28 08:45:09;;;;;;;3.90;1.90;;;24.00;41.30;;;;;;5017337;28;20204;-85
2023/06/28 08:47:36;;;;;;;3.85;1.98;;;24.20;41.60;;;;;;5000564;28;20201;-84
2023/06/28 08:50:05;;;;;;;2.47;1.70;;;24.20;41.20;;;;;;5017676;28;20216;-83
2023/06/28 08:52:32;;;;;;;4.40;2.05;;;24.30;41.30;;;;;;5017189;28;20224;-82
2023/06/28 08:54:59;;;;;;;4.10;2.00;;;24.40;41.40;;;;;;5017580;28;20559;-83
2023/06/28 08:57:26;;;;;;;3.90;1.75;;;24.50;41.60;;;;;;5016258;28;20566;-80
2023/06/28 08:59:53;;;;;;;4.25;1.92;;;24.60;42.00;;;;;;5016491;28;20287;-81
2023/06/28 09:02:20;;;;;;;3.70;2.13;;;24.70;41.10;;;;;;5016281;28;20296;-81
2023/06/28 09:04:47;;;;;;;4.72;2.25;;;24.80;40.80;;;;;;5016338;28;20302;-81
2023/06/28 09:07:16;;;;;;;3.63;2.05;;;24.80;40.50;;;;;;5016735;28;20197;-81
2023/06/28 09:09:44;;;;;;;4.25;2.10;;;24.90;40.20;;;;;;5016816;28;20225;-84
2023/06/28 09:12:11;;;;;;;3.35;1.90;;;24.90;40.10;;;;;;5016570;28;20307;-81
2023/06/28 09:14:39;;;;;;;3.13;1.98;;;24.90;40.50;;;;;;5015787;28;20200;-79
2023/06/28 09:17:06;;;;;;;3.63;2.00;;;25.00;40.70;;;;;;5016764;28;20573;-80
2023/06/28 09:19:33;;;;;;;4.07;2.20;;;25.00;40.10;;;;;;5019517;28;20228;-80
2023/06/28 09:22:03;;;;;;;2.72;1.73;;;25.10;40.20;;;;;;5016670;28;20199;-81
2023/06/28 09:24:34;;;;;;;3.20;1.90;;;25.20;40.30;;;;;;5017909;28;20196;-80
2023/06/28 09:27:05;;;;;;;3.25;1.67;;;25.40;40.30;;;;;;5020215;28;20220;-81
2023/06/28 09:29:32;;;;;;;4.00;2.20;;;25.50;39.80;;;;;;5016841;28;20237;-81
2023/06/28 09:32:00;;;;;;;2.88;1.70;;;25.60;39.40;;;;;;5017014;28;20224;-81
2023/06/28 09:34:27;;;;;;;1.95;1.67;;;25.60;39.20;;;;;;5017494;28;20228;-81
2023/06/28 09:36:54;;;;;;;2.70;1.80;;;25.70;39.40;;;;;;5001276;28;20207;-80
2023/06/28 09:39:22;;;;;;;2.03;1.80;;;25.70;39.50;;;;;;5017664;28;20228;-80
2023/06/28 09:41:51;;;;;;;3.20;1.70;;;25.70;39.10;;;;;;5000010;28;20201;-80
2023/06/28 09:44:26;;;;;;;2.50;1.67;;;25.70;38.90;;;;;;5005660;28;20663;-81
2023/06/28 09:46:59;;;;;;;5.07;2.00;;;25.70;39.30;;;;;;5021602;28;20215;-81
2023/06/28 09:49:26;;;;;;;2.53;1.80;;;25.80;39.30;;;;;;5005487;28;20612;-81
2023/06/28 09:51:58;;;;;;;4.50;2.00;;;25.80;39.20;;;;;;5020957;28;20274;-81
2023/06/28 09:54:29;;;;;;;2.08;1.88;;;25.80;38.80;;;;;;5021007;28;20200;-81
2023/06/28 09:56:58;;;;;;;2.88;1.90;;;25.80;39.00;;;;;;5021332;28;20201;-81
2023/06/28 09:59:26;;;;;;;2.55;1.70;;;25.80;39.00;;;;;;5020465;28;20232;-81
2023/06/28 10:01:53;;;;;;;2.22;1.88;;;25.70;38.90;;;;;;5021406;28;20334;-81
2023/06/28 10:04:20;;;;;;;3.50;1.80;;;25.70;39.10;;;;;;5020279;28;20200;-81
2023/06/28 10:06:47;;;;;;;2.17;1.73;;;25.80;39.30;;;;;;5021234;28;20245;-81
2023/06/28 10:09:16;;;;;;;4.00;2.00;;;25.90;39.40;;;;;;5021008;28;20266;-81
2023/06/28 10:11:44;;;;;;;2.45;1.80;;;25.90;39.40;;;;;;5027659;28;20221;-80
2023/06/28 10:14:12;;;;;;;3.53;2.08;;;26.00;39.20;;;;;;5031228;28;20205;-81
2023/06/28 10:16:40;;;;;;;4.30;2.00;;;26.10;39.00;;;;;;5030616;28;20258;-81
2023/06/28 10:19:08;;;;;;;3.85;2.05;;;26.10;38.70;;;;;;5021676;28;20236;-81
2023/06/28 10:21:35;;;;;;;5.05;2.20;;;26.10;38.50;;;;;;5016022;28;20197;-82
2023/06/28 10:24:03;;;;;;;5.63;2.20;;;26.10;38.50;;;;;;4998944;28;20201;-83
2023/06/28 10:26:29;;;;;;;3.63;2.30;;;26.10;38.70;;;;;;5014298;28;20197;-82
2023/06/28 10:28:57;;;;;;;3.85;2.28;;;26.10;38.70;;;;;;5015916;28;20223;-81
2023/06/28 10:31:25;;;;;;;3.35;2.30;;;26.10;38.50;;;;;;5016824;28;20243;-82
2023/06/28 10:33:52;;;;;;;2.95;2.10;;;26.10;38.70;;;;;;5016899;28;20204;-82
2023/06/28 10:36:19;;;;;;;4.45;2.33;;;26.20;38.70;;;;;;5017040;28;20262;-82
2023/06/28 10:38:46;;;;;;;4.40;1.90;;;26.20;38.70;;;;;;5001629;28;20231;-84
2023/06/28 10:41:14;;;;;;;3.60;2.10;;;26.20;38.50;;;;;;5017447;28;20287;-84
2023/06/28 10:43:41;;;;;;;2.95;2.10;;;26.30;38.30;;;;;;5018702;28;20723;-83
2023/06/28 10:46:21;;;;;;;3.28;1.70;;;26.40;38.20;;;;;;5016189;28;20656;-82
2023/06/28 10:48:52;;;;;;;2.58;1.95;;;26.40;38.60;;;;;;5016182;28;20220;-81
2023/06/28 10:51:20;;;;;;;4.28;2.20;;;26.40;38.70;;;;;;5016320;28;20565;-83
2023/06/28 10:53:52;;;;;;;3.05;2.00;;;26.40;38.40;;;;;;5017256;28;20196;-83
2023/06/28 10:56:20;;;;;;;2.38;1.80;;;26.50;38.50;;;;;;5019042;28;20663;-82
2023/06/28 10:58:48;;;;;;;2.90;2.08;;;26.40;38.40;;;;;;5014552;28;20232;-80
2023/06/28 11:01:31;;;;;;;2.78;1.73;;;26.40;38.40;;;;;;5016035;28;20200;-82
2023/06/28 11:04:21;;;;;;;3.25;2.00;;;26.40;38.70;;;;;;5015561;28;20177;-82
2023/06/28 11:06:48;;;;;;;3.83;1.90;;;26.50;38.70;;;;;;5016038;28;20189;-82
2023/06/28 11:09:16;;;;;;;3.80;1.90;;;26.50;38.50;;;;;;5014032;28;20667;-82
2023/06/28 11:11:54;;;;;;;3.90;1.98;;;26.50;38.30;;;;;;5014975;28;20220;-82
2023/06/28 11:14:22;;;;;;;3.65;1.95;;;26.60;38.50;;;;;;5014678;28;20197;-85
2023/06/28 11:16:50;;;;;;;2.15;1.70;;;26.50;38.60;;;;;;5014899;28;20667;-84
2023/06/28 11:19:20;;;;;;;3.00;1.90;;;26.50;38.60;;;;;;5014626;28;20212;-84
2023/06/28 11:21:49;;;;;;;2.85;1.90;;;26.50;38.60;;;;;;5014350;28;20192;-81
2023/06/28 11:24:25;;;;;;;5.35;1.88;;;26.50;38.40;;;;;;5014584;28;20208;-81
2023/06/28 11:26:52;;;;;;;3.22;1.85;;;26.60;38.40;;;;;;5014581;28;20215;-85
2023/06/28 11:29:20;;;;;;;3.67;2.08;;;26.60;38.40;;;;;;5015967;28;20240;-84
2023/06/28 11:31:50;;;;;;;2.38;2.00;;;26.50;39.10;;;;;;5013959;28;20223;-81
2023/06/28 11:34:20;;;;;;;3.13;2.40;;;26.60;38.50;;;;;;5015168;28;20196;-81
2023/06/28 11:36:48;;;;;;;3.42;2.33;;;26.60;39.20;;;;;;5016727;28;20254;-81
2023/06/28 11:39:15;;;;;;;5.60;2.72;;;26.60;38.90;;;;;;5016612;28;20716;-80
2023/06/28 11:41:43;;;;;;;3.38;2.17;;;26.60;38.90;;;;;;5016992;28;20204;-80
2023/06/28 11:44:12;;;;;;;4.82;2.65;;;26.60;39.10;;;;;;5016822;28;20246;-80
2023/06/28 11:46:40;;;;;;;5.55;2.28;;;26.60;39.30;;;;;;4999797;28;20235;-80
2023/06/28 11:49:07;;;;;;;3.65;2.20;;;26.70;39.50;;;;;;5017012;28;20251;-81
2023/06/28 11:51:36;;;;;;;3.88;2.30;;;26.60;39.20;;;;;;5018163;28;20199;-81
2023/06/28 11:54:06;;;;;;;4.30;2.22;;;26.70;39.40;;;;;;5016735;28;20204;-81
2023/06/28 11:56:34;;;;;;;3.15;2.33;;;26.60;39.10;;;;;;5016765;28;20196;-81
2023/06/28 11:59:13;;;;;;;3.78;2.30;;;26.70;39.40;;;;;;5017021;28;20282;-81
2023/06/28 12:01:40;;;;;;;3.38;2.40;;;26.70;39.20;;;;;;5017235;28;20267;-81
2023/06/28 12:04:16;;;;;;;6.55;2.20;;;26.70;39.00;;;;;;5017540;28;20238;-81
2023/06/28 12:06:45;;;;;;;4.07;2.30;;;26.70;39.30;;;;;;5017457;28;20311;-81
2023/06/28 12:09:42;;;;;;;3.60;2.08;;;26.70;39.00;;;;;;5017637;28;20216;-81
2023/06/28 12:12:10;;;;;;;3.50;1.90;;;26.70;38.80;;;;;;5011167;28;20216;-80
2023/06/28 12:14:41;;;;;;;2.80;2.03;;;26.60;38.80;;;;;;5013481;28;20285;-80
2023/06/28 12:17:08;;;;;;;2.95;2.00;;;26.60;38.90;;;;;;5014890;28;20192;-81
2023/06/28 12:19:36;;;;;;;3.20;2.10;;;26.60;38.80;;;;;;5013477;28;20216;-80
2023/06/28 12:22:05;;;;;;;2.40;1.98;;;26.60;39.00;;;;;;5014490;28;20250;-80
2023/06/28 12:24:34;;;;;;;2.40;1.92;;;26.60;39.00;;;;;;5013369;28;20199;-80
2023/06/28 12:27:02;;;;;;;3.45;2.13;;;26.60;39.10;;;;;;5013608;28;20564;-80
2023/06/28 12:29:32;;;;;;;5.72;2.20;;;26.50;39.20;;;;;;5013397;28;20216;-80
2023/06/28 12:32:04;;;;;;;2.78;2.08;;;26.60;39.50;;;;;;5013228;28;20212;-81
2023/06/28 12:34:34;;;;;;;3.67;2.08;;;26.60;39.70;;;;;;5013396;28;20188;-81
2023/06/28 12:37:03;;;;;;;3.13;2.03;;;26.60;39.70;;;;;;4997107;28;20251;-80
2023/06/28 12:39:32;;;;;;;5.25;1.95;;;26.50;39.50;;;;;;5013592;28;20308;-80
2023/06/28 12:42:01;;;;;;;2.10;1.90;;;26.50;39.90;;;;;;5014505;28;20287;-81
2023/06/28 12:44:28;;;;;;;3.17;2.10;;;26.50;39.70;;;;;;5000911;28;20204;-81
2023/06/28 12:46:56;;;;;;;3.40;2.00;;;26.50;39.70;;;;;;5019362;28;20211;-81
2023/06/28 12:49:23;;;;;;;2.90;1.90;;;26.50;40.10;;;;;;5020782;28;20239;-81
2023/06/28 12:51:50;;;;;;;2.45;1.77;;;26.50;40.00;;;;;;5021393;28;20621;-81